sensor_id;sensor_type;location;lat;lon;timestamp;pressure;altitude;pressure_sealevel;temperature;humidity
16100;BME280;8154;50.830;12.082;2022-08-01T00:01:50;99241.38;;;26.06;46.08
16100;BME280;8154;50.830;12.082;2022-08-01T00:04:35;99241.59;;;26.04;46.16
16100;BME280;8154;50.830;12.082;2022-08-01T00:07:19;99240.75;;;26.04;46.28
16100;BME280;8154;50.830;12.082;2022-08-01T00:10:06;99233.56;;;25.98;46.25
16100;BME280;8154;50.830;12.082;2022-08-01T00:12:51;99232.34;;;26.00;46.25
16100;BME280;8154;50.830;12.082;2022-08-01T00:15:35;99238.28;;;26.02;46.05
16100;BME280;8154;50.830;12.082;2022-08-01T00:18:20;99237.50;;;26.02;46.28
16100;BME280;8154;50.830;12.082;2022-08-01T00:21:05;99236.66;;;26.01;45.80
16100;BME280;8154;50.830;12.082;2022-08-01T00:23:49;99239.13;;;26.03;45.90
16100;BME280;8154;50.830;12.082;2022-08-01T00:26:34;99222.22;;;26.02;45.81
16100;BME280;8154;50.830;12.082;2022-08-01T00:29:19;99225.06;;;26.07;45.86
16100;BME280;8154;50.830;12.082;2022-08-01T00:32:03;99238.25;;;26.09;45.71
16100;BME280;8154;50.830;12.082;2022-08-01T00:34:48;99235.00;;;26.07;45.75
16100;BME280;8154;50.830;12.082;2022-08-01T00:37:36;99226.97;;;26.07;45.72
16100;BME280;8154;50.830;12.082;2022-08-01T00:40:22;99229.03;;;26.05;45.40
16100;BME280;8154;50.830;12.082;2022-08-01T00:43:06;99235.84;;;26.01;45.69
16100;BME280;8154;50.830;12.082;2022-08-01T00:45:52;99231.31;;;26.01;45.44
16100;BME280;8154;50.830;12.082;2022-08-01T00:48:36;99235.84;;;26.01;45.52
16100;BME280;8154;50.830;12.082;2022-08-01T00:51:22;99241.59;;;25.98;45.55
16100;BME280;8154;50.830;12.082;2022-08-01T00:54:06;99237.06;;;25.98;45.34
16100;BME280;8154;50.830;12.082;2022-08-01T00:56:52;99241.19;;;26.01;45.55
16100;BME280;8154;50.830;12.082;2022-08-01T00:59:37;99235.78;;;26.07;45.36
16100;BME280;8154;50.830;12.082;2022-08-01T01:02:23;99244.66;;;26.08;45.20
16100;BME280;8154;50.830;12.082;2022-08-01T01:05:08;99249.41;;;26.06;45.25
16100;BME280;8154;50.830;12.082;2022-08-01T01:08:10;99245.28;;;26.10;45.11
16100;BME280;8154;50.830;12.082;2022-08-01T01:11:05;99247.72;;;26.11;45.04
16100;BME280;8154;50.830;12.082;2022-08-01T01:13:59;99240.28;;;26.13;45.13
16100;BME280;8154;50.830;12.082;2022-08-01T01:16:46;99236.94;;;26.18;44.95
16100;BME280;8154;50.830;12.082;2022-08-01T01:19:33;99228.69;;;26.19;44.87
16100;BME280;8154;50.830;12.082;2022-08-01T01:28:33;99230.78;;;26.17;44.49
16100;BME280;8154;50.830;12.082;2022-08-01T01:31:21;99225.66;;;26.16;44.85
16100;BME280;8154;50.830;12.082;2022-08-01T01:34:09;99233.91;;;26.14;44.72
16100;BME280;8154;50.830;12.082;2022-08-01T01:36:56;99229.13;;;26.16;44.67
16100;BME280;8154;50.830;12.082;2022-08-01T01:39:43;99230.16;;;26.15;44.65
16100;BME280;8154;50.830;12.082;2022-08-01T01:42:30;99242.16;;;26.13;44.59
16100;BME280;8154;50.830;12.082;2022-08-01T01:45:16;99230.38;;;26.14;44.80
16100;BME280;8154;50.830;12.082;2022-08-01T01:48:01;99233.06;;;26.14;44.66
16100;BME280;8154;50.830;12.082;2022-08-01T01:50:47;99240.28;;;26.13;44.94
16100;BME280;8154;50.830;12.082;2022-08-01T01:53:35;99237.38;;;26.15;44.56
16100;BME280;8154;50.830;12.082;2022-08-01T01:56:20;99233.28;;;26.12;44.69
16100;BME280;8154;50.830;12.082;2022-08-01T01:59:05;99238.25;;;26.09;44.80
16100;BME280;8154;50.830;12.082;2022-08-01T02:01:51;99230.00;;;26.10;44.67
16100;BME280;8154;50.830;12.082;2022-08-01T02:04:39;99235.34;;;26.10;44.49
16100;BME280;8154;50.830;12.082;2022-08-01T02:07:24;99236.41;;;26.09;44.59
16100;BME280;8154;50.830;12.082;2022-08-01T02:10:11;99231.88;;;26.10;44.45
16100;BME280;8154;50.830;12.082;2022-08-01T02:12:58;99237.44;;;26.08;44.82
16100;BME280;8154;50.830;12.082;2022-08-01T02:15:44;99235.56;;;26.09;44.66
16100;BME280;8154;50.830;12.082;2022-08-01T02:18:29;99240.50;;;26.12;44.49
16100;BME280;8154;50.830;12.082;2022-08-01T02:21:19;99243.16;;;26.12;44.27
16100;BME280;8154;50.830;12.082;2022-08-01T02:24:13;99242.38;;;26.11;44.53
16100;BME280;8154;50.830;12.082;2022-08-01T02:27:01;99235.34;;;26.10;44.42
16100;BME280;8154;50.830;12.082;2022-08-01T02:29:59;99236.19;;;26.11;44.28
16100;BME280;8154;50.830;12.082;2022-08-01T02:32:49;99247.34;;;26.08;44.53
16100;BME280;8154;50.830;12.082;2022-08-01T02:35:38;99242.41;;;26.05;44.33
16100;BME280;8154;50.830;12.082;2022-08-01T02:38:28;99243.44;;;26.04;44.33
16100;BME280;8154;50.830;12.082;2022-08-01T02:41:19;99242.63;;;26.03;44.50
16100;BME280;8154;50.830;12.082;2022-08-01T02:44:07;99238.91;;;26.04;44.21
16100;BME280;8154;50.830;12.082;2022-08-01T02:46:57;99240.75;;;26.04;44.49
16100;BME280;8154;50.830;12.082;2022-08-01T02:49:48;99241.81;;;26.03;44.45
16100;BME280;8154;50.830;12.082;2022-08-01T02:52:35;99242.63;;;26.03;44.61
16100;BME280;8154;50.830;12.082;2022-08-01T02:55:20;99248.59;;;26.05;44.39
16100;BME280;8154;50.830;12.082;2022-08-01T02:58:09;99247.56;;;26.06;44.57
16100;BME280;8154;50.830;12.082;2022-08-01T03:00:54;99251.06;;;26.07;44.42
16100;BME280;8154;50.830;12.082;2022-08-01T03:03:39;99252.06;;;26.06;44.44
16100;BME280;8154;50.830;12.082;2022-08-01T03:06:24;99251.28;;;26.05;44.51
16100;BME280;8154;50.830;12.082;2022-08-01T03:09:11;99251.88;;;26.07;44.54
16100;BME280;8154;50.830;12.082;2022-08-01T03:11:58;99254.75;;;26.06;44.46
16100;BME280;8154;50.830;12.082;2022-08-01T03:14:46;99260.56;;;26.03;44.37
16100;BME280;8154;50.830;12.082;2022-08-01T03:17:32;99258.47;;;26.05;44.39
16100;BME280;8154;50.830;12.082;2022-08-01T03:20:21;99256.81;;;26.04;44.46
16100;BME280;8154;50.830;12.082;2022-08-01T03:23:10;99265.28;;;26.01;44.29
16100;BME280;8154;50.830;12.082;2022-08-01T03:25:55;99265.28;;;26.01;44.41
16100;BME280;8154;50.830;12.082;2022-08-01T03:28:42;99262.63;;;26.01;44.36
16100;BME280;8154;50.830;12.082;2022-08-01T03:31:28;99265.91;;;26.03;44.48
16100;BME280;8154;50.830;12.082;2022-08-01T03:34:15;99267.16;;;26.00;44.66
16100;BME280;8154;50.830;12.082;2022-08-01T03:37:12;99267.53;;;26.04;44.29
16100;BME280;8154;50.830;12.082;2022-08-01T03:40:04;99270.44;;;26.02;44.44
16100;BME280;8154;50.830;12.082;2022-08-01T03:43:02;99275.38;;;25.99;44.42
16100;BME280;8154;50.830;12.082;2022-08-01T03:45:51;99272.88;;;26.04;44.50
16100;BME280;8154;50.830;12.082;2022-08-01T03:48:41;99277.22;;;26.05;44.50
16100;BME280;8154;50.830;12.082;2022-08-01T03:51:27;99267.94;;;26.07;44.40
16100;BME280;8154;50.830;12.082;2022-08-01T03:54:14;99274.28;;;26.13;44.18
16100;BME280;8154;50.830;12.082;2022-08-01T03:57:00;99275.31;;;26.12;44.06
16100;BME280;8154;50.830;12.082;2022-08-01T03:59:46;99275.31;;;26.12;44.20
16100;BME280;8154;50.830;12.082;2022-08-01T04:02:31;99282.69;;;26.16;43.94
16100;BME280;8154;50.830;12.082;2022-08-01T04:05:17;99288.50;;;26.13;43.92
16100;BME280;8154;50.830;12.082;2022-08-01T04:08:05;99282.97;;;26.08;44.25
16100;BME280;8154;50.830;12.082;2022-08-01T04:10:49;99279.47;;;26.08;44.28
16100;BME280;8154;50.830;12.082;2022-08-01T04:13:34;99290.41;;;26.06;44.20
16100;BME280;8154;50.830;12.082;2022-08-01T04:16:19;99290.63;;;26.05;44.20
16100;BME280;8154;50.830;12.082;2022-08-01T04:19:03;99290.63;;;26.05;44.17
16100;BME280;8154;50.830;12.082;2022-08-01T04:21:51;99292.69;;;26.03;44.14
16100;BME280;8154;50.830;12.082;2022-08-01T04:24:36;99298.66;;;26.05;44.38
16100;BME280;8154;50.830;12.082;2022-08-01T04:27:29;99298.22;;;26.08;43.93
16100;BME280;8154;50.830;12.082;2022-08-01T04:30:17;99292.88;;;26.08;44.35
16100;BME280;8154;50.830;12.082;2022-08-01T04:33:04;99300.25;;;26.12;44.10
16100;BME280;8154;50.830;12.082;2022-08-01T04:35:51;99292.00;;;26.14;44.38
16100;BME280;8154;50.830;12.082;2022-08-01T04:38:39;99294.69;;;26.14;44.34
16100;BME280;8154;50.830;12.082;2022-08-01T04:41:24;99298.63;;;26.11;44.36
16100;BME280;8154;50.830;12.082;2022-08-01T04:44:10;99307.88;;;26.09;44.27
16100;BME280;8154;50.830;12.082;2022-08-01T04:46:59;99305.44;;;26.07;44.63
16100;BME280;8154;50.830;12.082;2022-08-01T04:49:47;99305.44;;;26.07;44.64
16100;BME280;8154;50.830;12.082;2022-08-01T04:52:34;99304.63;;;26.07;44.64
16100;BME280;8154;50.830;12.082;2022-08-01T04:55:20;99311.22;;;26.04;44.74
16100;BME280;8154;50.830;12.082;2022-08-01T04:58:12;99307.94;;;26.02;44.61
16100;BME280;8154;50.830;12.082;2022-08-01T05:00:57;99305.84;;;26.04;44.63
16100;BME280;8154;50.830;12.082;2022-08-01T05:03:42;99312.03;;;26.05;44.76
16100;BME280;8154;50.830;12.082;2022-08-01T05:06:30;99312.03;;;26.05;44.76
16100;BME280;8154;50.830;12.082;2022-08-01T05:09:14;99316.56;;;26.04;44.89
16100;BME280;8154;50.830;12.082;2022-08-01T05:12:01;99323.19;;;26.02;44.83
16100;BME280;8154;50.830;12.082;2022-08-01T05:14:52;99317.63;;;26.03;45.00
16100;BME280;8154;50.830;12.082;2022-08-01T05:17:43;99316.19;;;26.01;44.98
16100;BME280;8154;50.830;12.082;2022-08-01T05:20:30;99321.31;;;26.02;44.87
16100;BME280;8154;50.830;12.082;2022-08-01T05:23:24;99310.81;;;26.01;45.10
16100;BME280;8154;50.830;12.082;2022-08-01T05:26:16;99317.84;;;26.02;44.99
16100;BME280;8154;50.830;12.082;2022-08-01T05:29:03;99320.09;;;25.98;45.20
16100;BME280;8154;50.830;12.082;2022-08-01T05:32:02;99314.34;;;25.95;45.02
16100;BME280;8154;50.830;12.082;2022-08-01T05:34:50;99323.59;;;25.99;45.10
16100;BME280;8154;50.830;12.082;2022-08-01T05:37:35;99313.31;;;25.96;45.23
16100;BME280;8154;50.830;12.082;2022-08-01T05:40:22;99317.00;;;25.95;45.26
16100;BME280;8154;50.830;12.082;2022-08-01T05:43:14;99316.22;;;25.94;45.52
16100;BME280;8154;50.830;12.082;2022-08-01T05:46:06;99307.56;;;25.92;45.55
16100;BME280;8154;50.830;12.082;2022-08-01T05:48:53;99312.06;;;25.98;45.51
16100;BME280;8154;50.830;12.082;2022-08-01T05:51:37;99311.03;;;25.99;45.40
16100;BME280;8154;50.830;12.082;2022-08-01T05:54:23;99313.31;;;25.96;45.26
16100;BME280;8154;50.830;12.082;2022-08-01T05:57:08;99310.41;;;25.97;45.23
16100;BME280;8154;50.830;12.082;2022-08-01T05:59:52;99310.03;;;25.94;45.91
16100;BME280;8154;50.830;12.082;2022-08-01T06:02:40;99320.31;;;25.97;45.96
16100;BME280;8154;50.830;12.082;2022-08-01T06:05:26;99320.31;;;25.97;45.79
16100;BME280;8154;50.830;12.082;2022-08-01T06:08:11;99317.44;;;25.92;45.96
16100;BME280;8154;50.830;12.082;2022-08-01T06:10:56;99333.50;;;25.92;46.10
16100;BME280;8154;50.830;12.082;2022-08-01T06:13:41;99334.56;;;25.91;46.12
16100;BME280;8154;50.830;12.082;2022-08-01T06:16:26;99333.13;;;25.88;46.22
16100;BME280;8154;50.830;12.082;2022-08-01T06:19:11;99340.13;;;25.89;46.20
16100;BME280;8154;50.830;12.082;2022-08-01T06:21:55;99339.28;;;25.88;46.14
16100;BME280;8154;50.830;12.082;2022-08-01T06:24:40;99331.88;;;25.91;46.08
16100;BME280;8154;50.830;12.082;2022-08-01T06:27:26;99343.63;;;25.90;46.10
16100;BME280;8154;50.830;12.082;2022-08-01T06:30:14;99347.53;;;25.87;46.44
16100;BME280;8154;50.830;12.082;2022-08-01T06:33:00;99346.31;;;25.90;46.52
16100;BME280;8154;50.830;12.082;2022-08-01T06:35:45;99342.19;;;25.87;46.20
16100;BME280;8154;50.830;12.082;2022-08-01T06:38:30;99340.34;;;25.88;46.39
16100;BME280;8154;50.830;12.082;2022-08-01T06:41:15;99347.13;;;25.83;46.08
16100;BME280;8154;50.830;12.082;2022-08-01T06:44:00;99347.34;;;25.82;46.72
16100;BME280;8154;50.830;12.082;2022-08-01T06:46:46;99350.44;;;25.85;46.45
16100;BME280;8154;50.830;12.082;2022-08-01T06:49:30;99354.78;;;25.87;46.57
16100;BME280;8154;50.830;12.082;2022-08-01T06:52:17;99355.59;;;25.80;46.61
16100;BME280;8154;50.830;12.082;2022-08-01T06:55:02;99355.00;;;25.78;46.24
16100;BME280;8154;50.830;12.082;2022-08-01T06:57:50;99350.03;;;25.82;46.28
16100;BME280;8154;50.830;12.082;2022-08-01T07:00:34;99347.34;;;25.82;46.17
16100;BME280;8154;50.830;12.082;2022-08-01T07:03:19;99347.53;;;25.87;46.22
16100;BME280;8154;50.830;12.082;2022-08-01T07:06:04;99345.06;;;25.85;46.03
16100;BME280;8154;50.830;12.082;2022-08-01T07:08:49;99363.16;;;25.90;46.47
16100;BME280;8154;50.830;12.082;2022-08-01T07:11:34;99359.84;;;25.95;46.38
16100;BME280;8154;50.830;12.082;2022-08-01T07:14:20;99351.59;;;25.96;46.70
16100;BME280;8154;50.830;12.082;2022-08-01T07:17:04;99360.69;;;26.02;46.90
16100;BME280;8154;50.830;12.082;2022-08-01T07:19:50;99361.50;;;26.02;46.65
16100;BME280;8154;50.830;12.082;2022-08-01T07:22:35;99365.44;;;26.00;46.76
16100;BME280;8154;50.830;12.082;2022-08-01T07:25:19;99368.09;;;26.00;46.73
16100;BME280;8154;50.830;12.082;2022-08-01T07:28:04;99367.88;;;25.95;46.81
16100;BME280;8154;50.830;12.082;2022-08-01T07:30:49;99368.09;;;25.93;46.94
16100;BME280;8154;50.830;12.082;2022-08-01T07:33:34;99373.66;;;25.92;47.57
16100;BME280;8154;50.830;12.082;2022-08-01T07:36:19;99374.28;;;25.94;47.81
16100;BME280;8154;50.830;12.082;2022-08-01T07:39:07;99371.59;;;25.94;47.78
16100;BME280;8154;50.830;12.082;2022-08-01T07:41:52;99371.59;;;25.94;47.81
16100;BME280;8154;50.830;12.082;2022-08-01T07:44:38;99390.97;;;25.96;47.78
16100;BME280;8154;50.830;12.082;2022-08-01T07:47:26;99383.75;;;25.96;48.23
16100;BME280;8154;50.830;12.082;2022-08-01T07:50:12;99379.22;;;25.97;48.26
16100;BME280;8154;50.830;12.082;2022-08-01T07:52:58;99393.44;;;25.97;48.16
16100;BME280;8154;50.830;12.082;2022-08-01T07:55:43;99387.25;;;25.97;48.21
16100;BME280;8154;50.830;12.082;2022-08-01T07:58:28;99394.06;;;25.99;48.16
16100;BME280;8154;50.830;12.082;2022-08-01T08:01:13;99391.56;;;25.98;48.23
16100;BME280;8154;50.830;12.082;2022-08-01T08:03:58;99390.97;;;25.96;48.27
16100;BME280;8154;50.830;12.082;2022-08-01T08:06:44;99386.03;;;25.99;48.20
16100;BME280;8154;50.830;12.082;2022-08-01T08:09:32;99384.19;;;26.00;47.89
16100;BME280;8154;50.830;12.082;2022-08-01T08:12:17;99382.31;;;26.00;47.91
16100;BME280;8154;50.830;12.082;2022-08-01T08:15:03;99392.38;;;25.98;47.99
16100;BME280;8154;50.830;12.082;2022-08-01T08:17:49;99391.56;;;25.98;47.91
16100;BME280;8154;50.830;12.082;2022-08-01T08:20:34;99382.94;;;25.96;47.84
16100;BME280;8154;50.830;12.082;2022-08-01T08:23:19;99390.34;;;25.94;48.13
16100;BME280;8154;50.830;12.082;2022-08-01T08:26:34;99389.94;;;25.90;48.44
16100;BME280;8154;50.830;12.082;2022-08-01T08:29:20;99391.00;;;25.89;48.31
16100;BME280;8154;50.830;12.082;2022-08-01T08:32:05;99390.59;;;25.85;48.16
16100;BME280;8154;50.830;12.082;2022-08-01T08:34:52;99396.16;;;25.84;48.32
16100;BME280;8154;50.830;12.082;2022-08-01T08:37:38;99393.69;;;25.82;48.15
16100;BME280;8154;50.830;12.082;2022-08-01T08:40:30;99398.63;;;25.85;47.92
16100;BME280;8154;50.830;12.082;2022-08-01T08:43:17;99393.69;;;25.82;48.46
16100;BME280;8154;50.830;12.082;2022-08-01T08:46:03;99393.69;;;25.82;48.33
16100;BME280;8154;50.830;12.082;2022-08-01T08:48:49;99397.22;;;25.83;48.62
16100;BME280;8154;50.830;12.082;2022-08-01T08:51:39;99403.56;;;25.82;48.26
16100;BME280;8154;50.830;12.082;2022-08-01T08:54:27;99398.19;;;25.88;48.15
16100;BME280;8154;50.830;12.082;2022-08-01T08:57:14;99396.34;;;25.89;48.10
16100;BME280;8154;50.830;12.082;2022-08-01T09:00:00;99395.09;;;25.92;48.05
16100;BME280;8154;50.830;12.082;2022-08-01T09:02:47;99387.69;;;25.87;48.11
16100;BME280;8154;50.830;12.082;2022-08-01T09:05:42;99391.63;;;25.84;48.05
16100;BME280;8154;50.830;12.082;2022-08-01T09:08:31;99397.78;;;25.85;48.44
16100;BME280;8154;50.830;12.082;2022-08-01T09:11:20;99397.44;;;25.68;49.10
16100;BME280;8154;50.830;12.082;2022-08-01T09:14:48;99393.75;;;25.69;48.80
16100;BME280;8154;50.830;12.082;2022-08-01T09:17:45;99399.72;;;25.65;49.01
16100;BME280;8154;50.830;12.082;2022-08-01T09:20:30;99396.88;;;25.60;49.61
16100;BME280;8154;50.830;12.082;2022-08-01T09:23:35;99397.88;;;25.65;49.24
16100;BME280;8154;50.830;12.082;2022-08-01T09:26:32;99398.69;;;25.72;49.00
16100;BME280;8154;50.830;12.082;2022-08-01T09:29:20;99396.84;;;25.66;49.25
16100;BME280;8154;50.830;12.082;2022-08-01T09:32:06;99399.34;;;25.61;49.61
16100;BME280;8154;50.830;12.082;2022-08-01T09:34:54;99403.22;;;25.65;49.80
16100;BME280;8154;50.830;12.082;2022-08-01T09:37:39;99396.66;;;25.61;50.13
16100;BME280;8154;50.830;12.082;2022-08-01T09:40:25;99406.75;;;25.59;50.15
16100;BME280;8154;50.830;12.082;2022-08-01T09:43:12;99408.59;;;25.65;49.84
16100;BME280;8154;50.830;12.082;2022-08-01T09:46:04;99397.66;;;25.73;49.12
16100;BME280;8154;50.830;12.082;2022-08-01T09:49:05;99406.94;;;25.71;48.92
16100;BME280;8154;50.830;12.082;2022-08-01T09:51:50;99404.81;;;25.79;48.64
16100;BME280;8154;50.830;12.082;2022-08-01T09:54:35;99403.78;;;25.80;48.51
16100;BME280;8154;50.830;12.082;2022-08-01T09:57:21;99409.75;;;25.82;48.19
16100;BME280;8154;50.830;12.082;2022-08-01T10:00:17;99403.56;;;25.82;48.11
16100;BME280;8154;50.830;12.082;2022-08-01T10:03:21;99393.91;;;25.81;48.48
16100;BME280;8154;50.830;12.082;2022-08-01T10:06:20;99399.44;;;25.86;48.08
16100;BME280;8154;50.830;12.082;2022-08-01T10:09:06;99402.53;;;25.90;48.42
16100;BME280;8154;50.830;12.082;2022-08-01T10:11:50;99402.34;;;25.84;48.73
16100;BME280;8154;50.830;12.082;2022-08-01T10:14:38;99405.66;;;25.87;48.37
16100;BME280;8154;50.830;12.082;2022-08-01T10:17:25;99405.22;;;25.90;48.15
16100;BME280;8154;50.830;12.082;2022-08-01T10:20:09;99399.88;;;25.90;48.04
16100;BME280;8154;50.830;12.082;2022-08-01T10:22:58;99406.84;;;25.91;47.73
16100;BME280;8154;50.830;12.082;2022-08-01T10:25:44;99401.44;;;26.04;47.21
16100;BME280;8154;50.830;12.082;2022-08-01T10:28:31;99399.41;;;25.99;47.23
16100;BME280;8154;50.830;12.082;2022-08-01T10:31:19;99402.72;;;26.01;47.33
16100;BME280;8154;50.830;12.082;2022-08-01T10:34:04;99405.59;;;26.00;46.93
16100;BME280;8154;50.830;12.082;2022-08-01T10:36:49;99400.66;;;25.90;47.11
16100;BME280;8154;50.830;12.082;2022-08-01T10:39:34;99399.81;;;25.96;47.05
16100;BME280;8154;50.830;12.082;2022-08-01T10:42:19;99407.63;;;25.98;46.30
16100;BME280;8154;50.830;12.082;2022-08-01T10:45:04;99409.72;;;25.96;46.58
16100;BME280;8154;50.830;12.082;2022-08-01T10:50:57;99414.25;;;25.88;46.76
16100;BME280;8154;50.830;12.082;2022-08-01T10:53:58;99411.38;;;25.90;46.38
16100;BME280;8154;50.830;12.082;2022-08-01T10:56:52;99403.13;;;25.92;46.54
16100;BME280;8154;50.830;12.082;2022-08-01T10:59:48;99406.03;;;25.83;46.42
16100;BME280;8154;50.830;12.082;2022-08-01T11:02:32;99398.84;;;25.84;46.60
16100;BME280;8154;50.830;12.082;2022-08-01T11:05:25;99404.81;;;25.86;46.26
16100;BME280;8154;50.830;12.082;2022-08-01T11:08:12;99411.38;;;25.90;46.28
16100;BME280;8154;50.830;12.082;2022-08-01T11:11:05;99409.53;;;25.84;46.15
16100;BME280;8154;50.830;12.082;2022-08-01T11:16:46;99413.06;;;25.84;45.81
16100;BME280;8154;50.830;12.082;2022-08-01T11:20:06;99405.66;;;25.87;45.60
16100;BME280;8154;50.830;12.082;2022-08-01T11:28:31;99405.44;;;25.81;45.62
16100;BME280;8154;50.830;12.082;2022-08-01T11:34:00;99410.19;;;25.79;45.59
16100;BME280;8154;50.830;12.082;2022-08-01T11:36:47;99405.03;;;25.84;45.37
16100;BME280;8154;50.830;12.082;2022-08-01T11:39:32;99404.81;;;25.86;45.21
16100;BME280;8154;50.830;12.082;2022-08-01T11:42:18;99403.97;;;25.85;45.32
16100;BME280;8154;50.830;12.082;2022-08-01T11:45:04;99397.41;;;25.81;45.35
16100;BME280;8154;50.830;12.082;2022-08-01T11:47:50;99406.69;;;25.79;45.33
16100;BME280;8154;50.830;12.082;2022-08-01T11:50:36;99409.56;;;25.77;45.44
16100;BME280;8154;50.830;12.082;2022-08-01T11:53:23;99398.06;;;25.77;45.38
16100;BME280;8154;50.830;12.082;2022-08-01T11:56:10;99405.47;;;25.75;45.30
16100;BME280;8154;50.830;12.082;2022-08-01T11:59:01;99401.16;;;25.74;45.44
16100;BME280;8154;50.830;12.082;2022-08-01T12:01:45;99400.94;;;25.75;45.27
16100;BME280;8154;50.830;12.082;2022-08-01T12:04:48;99394.34;;;25.71;45.52
16100;BME280;8154;50.830;12.082;2022-08-01T12:07:35;99402.16;;;25.73;45.31
16100;BME280;8154;50.830;12.082;2022-08-01T12:10:21;99399.69;;;25.71;45.36
16100;BME280;8154;50.830;12.082;2022-08-01T12:13:07;99394.56;;;25.70;45.57
16100;BME280;8154;50.830;12.082;2022-08-01T12:15:52;99396.44;;;25.69;45.71
16100;BME280;8154;50.830;12.082;2022-08-01T12:18:42;99390.47;;;25.67;45.59
16100;BME280;8154;50.830;12.082;2022-08-01T12:21:31;99389.22;;;25.70;45.63
16100;BME280;8154;50.830;12.082;2022-08-01T12:24:21;99393.75;;;25.69;45.34
16100;BME280;8154;50.830;12.082;2022-08-01T12:27:08;99404.41;;;25.76;45.41
16100;BME280;8154;50.830;12.082;2022-08-01T12:29:54;99395.59;;;25.75;45.40
16100;BME280;8154;50.830;12.082;2022-08-01T12:32:41;99392.91;;;25.75;45.18
16100;BME280;8154;50.830;12.082;2022-08-01T12:35:27;99393.91;;;25.74;44.83
16100;BME280;8154;50.830;12.082;2022-08-01T12:38:19;99394.78;;;25.68;45.12
16100;BME280;8154;50.830;12.082;2022-08-01T12:41:10;99393.13;;;25.67;44.81
16100;BME280;8154;50.830;12.082;2022-08-01T12:43:55;99388.22;;;25.64;44.82
16100;BME280;8154;50.830;12.082;2022-08-01T12:46:40;99396.66;;;25.61;44.63
16100;BME280;8154;50.830;12.082;2022-08-01T12:49:28;99384.09;;;25.62;44.95
16100;BME280;8154;50.830;12.082;2022-08-01T12:52:14;99395.00;;;25.60;44.62
16100;BME280;8154;50.830;12.082;2022-08-01T12:55:08;99406.94;;;25.64;44.61
16100;BME280;8154;50.830;12.082;2022-08-01T12:58:10;99407.34;;;25.68;44.08
16100;BME280;8154;50.830;12.082;2022-08-01T13:01:07;99400.97;;;25.62;44.23
16100;BME280;8154;50.830;12.082;2022-08-01T13:04:03;99403.84;;;25.67;44.36
16100;BME280;8154;50.830;12.082;2022-08-01T13:06:52;99403.63;;;25.69;44.09
16100;BME280;8154;50.830;12.082;2022-08-01T13:09:49;99407.53;;;25.73;43.84
16100;BME280;8154;50.830;12.082;2022-08-01T13:12:34;99396.59;;;25.74;43.70
16100;BME280;8154;50.830;12.082;2022-08-01T13:15:33;99398.06;;;25.77;43.52
16100;BME280;8154;50.830;12.082;2022-08-01T13:18:37;99393.06;;;25.80;43.47
16100;BME280;8154;50.830;12.082;2022-08-01T13:21:25;99375.19;;;25.74;43.50
16100;BME280;8154;50.830;12.082;2022-08-01T13:24:14;99388.16;;;25.77;43.22
16100;BME280;8154;50.830;12.082;2022-08-01T13:27:02;99391.69;;;25.71;43.50
16100;BME280;8154;50.830;12.082;2022-08-01T13:29:47;99380.31;;;25.76;43.28
16100;BME280;8154;50.830;12.082;2022-08-01T13:32:33;99383.22;;;25.74;43.37
16100;BME280;8154;50.830;12.082;2022-08-01T13:35:20;99373.13;;;25.76;42.86
16100;BME280;8154;50.830;12.082;2022-08-01T13:38:04;99375.19;;;25.74;42.87
16100;BME280;8154;50.830;12.082;2022-08-01T13:40:57;99373.34;;;25.68;43.04
16100;BME280;8154;50.830;12.082;2022-08-01T13:43:42;99368.84;;;25.69;43.07
16100;BME280;8154;50.830;12.082;2022-08-01T13:46:28;99377.69;;;25.69;43.21
16100;BME280;8154;50.830;12.082;2022-08-01T13:49:12;99375.03;;;25.69;43.04
16100;BME280;8154;50.830;12.082;2022-08-01T13:51:58;99361.59;;;25.76;42.95
16100;BME280;8154;50.830;12.082;2022-08-01T13:54:44;99369.59;;;25.82;42.89
16100;BME280;8154;50.830;12.082;2022-08-01T13:57:30;99375.16;;;25.81;42.62
16100;BME280;8154;50.830;12.082;2022-08-01T14:00:17;99369.41;;;25.77;42.56
16100;BME280;8154;50.830;12.082;2022-08-01T14:03:01;99374.34;;;25.80;42.38
16100;BME280;8154;50.830;12.082;2022-08-01T14:05:46;99369.41;;;25.77;42.62
16100;BME280;8154;50.830;12.082;2022-08-01T14:08:31;99372.28;;;25.82;42.19
16100;BME280;8154;50.830;12.082;2022-08-01T14:11:16;99373.31;;;25.81;42.30
16100;BME280;8154;50.830;12.082;2022-08-01T14:14:02;99374.16;;;25.75;41.82
16100;BME280;8154;50.830;12.082;2022-08-01T14:16:46;99371.88;;;25.79;41.92
16100;BME280;8154;50.830;12.082;2022-08-01T14:19:31;99376.59;;;25.83;41.56
16100;BME280;8154;50.830;12.082;2022-08-01T14:22:19;99377.63;;;25.82;41.96
16100;BME280;8154;50.830;12.082;2022-08-01T14:25:07;99374.94;;;25.89;41.79
16100;BME280;8154;50.830;12.082;2022-08-01T14:27:53;99366.06;;;25.88;41.62
16100;BME280;8154;50.830;12.082;2022-08-01T14:30:38;99370.22;;;25.84;41.87
16100;BME280;8154;50.830;12.082;2022-08-01T14:33:26;99371.22;;;25.90;41.95
16100;BME280;8154;50.830;12.082;2022-08-01T14:36:11;99372.66;;;25.93;41.64
16100;BME280;8154;50.830;12.082;2022-08-01T14:38:55;99377.41;;;25.91;41.71
16100;BME280;8154;50.830;12.082;2022-08-01T14:41:39;99379.84;;;25.92;41.72
16100;BME280;8154;50.830;12.082;2022-08-01T14:44:24;99383.16;;;25.94;41.94
16100;BME280;8154;50.830;12.082;2022-08-01T14:47:11;99386.03;;;25.93;41.85
16100;BME280;8154;50.830;12.082;2022-08-01T14:50:00;99380.84;;;25.98;41.51
16100;BME280;8154;50.830;12.082;2022-08-01T14:52:48;99379.84;;;25.99;41.38
16100;BME280;8154;50.830;12.082;2022-08-01T14:55:41;99375.09;;;26.01;41.31
16100;BME280;8154;50.830;12.082;2022-08-01T14:58:30;99376.31;;;25.98;41.36
16100;BME280;8154;50.830;12.082;2022-08-01T15:01:18;99372.81;;;25.98;41.46
16100;BME280;8154;50.830;12.082;2022-08-01T15:04:05;99372.81;;;25.98;41.42
16100;BME280;8154;50.830;12.082;2022-08-01T15:06:50;99376.97;;;25.94;41.09
16100;BME280;8154;50.830;12.082;2022-08-01T15:09:35;99372.22;;;25.96;41.34